Weather at Hallertau Airfield

Public forecast

Using degrees Celsius for public forecast. Weather courtesy of forecast.io.

Closest aviation weather report (METAR) to Hallertau Airfield

Report is more than 6 hours old.

Closest report is Ingolstadt Manching Airport, 4.7 nm (8.7 km) NNW. Retrieved 2022/09/17 18:20 UTC (18 days ago):

ETSI 171820Z AUTO 25011KT 9999 // ////// 10/06 Q1014 ///

Closest aviation forecast (TAF) to Hallertau Airfield

Forecast is more than 12 hours old.

Closest forecast is Ingolstadt Manching Airport, 4.7 nm (8.7 km) NNW. Retrieved 2022/05/09 14:27 UTC (5 months ago):

TAF ETSI 091315Z 0914/1013 CNL 1315